Time;durP1;ratioP1;P1;durP2;ratioP2;P2;SDS_P1;SDS_P2;PMS_P1;PMS_P2;Temp;Humidity;BMP_temperature;BMP_pressure;BME280_temperature;BME280_humidity;BME280_pressure;Samples;Min_cycle;Max_cycle;Signal;HPM_P1;HPM_P2
2022/05/19 00:01:10;;;;;;;2.80;2.00;;;;;;;13.21;76.27;100678.16;5136582;27;20274;-65
2022/05/19 00:03:39;;;;;;;3.33;1.73;;;;;;;13.15;76.79;100676.25;5136457;27;20190;-65
2022/05/19 00:06:07;;;;;;;2.57;2.10;;;;;;;13.22;77.75;100677.13;5136954;27;20192;-66
2022/05/19 00:08:35;;;;;;;4.27;2.37;;;;;;;13.29;78.10;100673.56;5136365;27;20273;-65
2022/05/19 00:11:05;;;;;;;3.40;3.10;;;;;;;13.37;78.14;100676.16;5135970;27;20193;-65
2022/05/19 00:13:33;;;;;;;3.77;3.47;;;;;;;13.33;79.82;100672.19;5136244;27;20247;-65
2022/05/19 00:16:00;;;;;;;3.77;3.47;;;;;;;13.28;79.97;100677.22;5135855;27;20186;-65
2022/05/19 00:18:27;;;;;;;3.50;3.23;;;;;;;13.27;79.74;100685.44;5136251;27;20218;-65
2022/05/19 00:20:55;;;;;;;3.43;3.13;;;;;;;13.21;79.48;100684.34;5136141;27;20186;-65
2022/05/19 00:23:22;;;;;;;4.07;3.10;;;;;;;12.97;78.87;100684.59;5135762;27;20732;-65
2022/05/19 00:25:49;;;;;;;3.73;2.73;;;;;;;12.91;79.28;100687.94;5136025;27;20224;-65
2022/05/19 00:28:16;;;;;;;4.03;3.63;;;;;;;12.93;80.90;100677.09;5135667;27;20197;-65
2022/05/19 00:30:43;;;;;;;3.27;2.67;;;;;;;13.02;81.34;100679.53;5136147;27;20598;-64
2022/05/19 00:33:11;;;;;;;3.57;3.37;;;;;;;13.07;79.42;100685.13;5136656;27;20250;-65
2022/05/19 00:35:38;;;;;;;4.00;3.70;;;;;;;12.92;80.08;100681.63;5136084;27;20221;-65
2022/05/19 00:38:07;;;;;;;3.70;3.40;;;;;;;12.68;81.98;100681.84;5136195;27;20218;-65
2022/05/19 00:40:34;;;;;;;3.23;3.07;;;;;;;12.67;83.19;100680.19;5135425;27;20194;-65
2022/05/19 00:43:01;;;;;;;2.90;2.77;;;;;;;12.49;81.50;100684.19;5134430;27;20190;-65
2022/05/19 00:45:33;;;;;;;3.70;3.43;;;;;;;12.26;82.43;100686.88;5135660;27;20194;-65
2022/05/19 00:48:05;;;;;;;3.40;3.10;;;;;;;12.08;82.99;100685.50;5135220;27;20186;-65
2022/05/19 00:50:36;;;;;;;3.67;3.27;;;;;;;11.92;83.77;100678.41;5135781;27;20182;-65
2022/05/19 00:53:10;;;;;;;3.50;3.20;;;;;;;11.78;84.27;100681.84;5136130;27;20185;-65
2022/05/19 00:55:42;;;;;;;3.03;2.60;;;;;;;11.80;84.10;100681.66;5136375;27;20185;-65
2022/05/19 00:58:15;;;;;;;4.60;2.60;;;;;;;11.70;83.97;100684.53;5135701;27;20217;-65
2022/05/19 01:00:43;;;;;;;3.37;2.90;;;;;;;11.58;84.18;100671.75;5135702;27;20186;-65
2022/05/19 01:03:10;;;;;;;3.00;2.70;;;;;;;11.54;84.16;100676.59;5135908;27;20192;-65
2022/05/19 01:05:42;;;;;;;2.87;2.67;;;;;;;11.38;85.26;100671.34;5135818;27;20195;-65
2022/05/19 01:08:14;;;;;;;3.30;3.10;;;;;;;11.25;85.05;100676.38;5134888;27;20209;-65
2022/05/19 01:10:42;;;;;;;3.00;2.50;;;;;;;11.14;86.23;100679.41;5134938;27;20731;-65
2022/05/19 01:13:11;;;;;;;2.40;2.20;;;;;;;11.06;87.02;100676.75;5135010;27;20658;-65
2022/05/19 01:15:41;;;;;;;3.40;3.10;;;;;;;10.96;88.00;100670.81;5134805;27;20201;-65
2022/05/19 01:18:08;;;;;;;5.97;3.13;;;;;;;10.95;87.54;100674.47;5135049;27;20196;-65
2022/05/19 01:20:36;;;;;;;3.27;3.07;;;;;;;10.88;88.37;100670.84;5134652;27;20252;-65
2022/05/19 01:23:10;;;;;;;3.33;3.07;;;;;;;10.83;89.33;100665.19;5134626;27;20200;-65
2022/05/19 01:25:44;;;;;;;4.30;3.73;;;;;;;10.79;90.06;100669.19;5135457;27;20602;-65
2022/05/19 01:28:12;;;;;;;6.53;3.70;;;;;;;10.83;90.23;100665.19;5135495;27;20616;-65
2022/05/19 01:30:40;;;;;;;4.33;4.00;;;;;;;10.76;91.14;100673.03;5134429;27;20570;-65
2022/05/19 01:33:07;;;;;;;4.57;4.27;;;;;;;10.68;92.20;100666.88;5134706;27;20193;-65
2022/05/19 01:35:34;;;;;;;4.80;4.33;;;;;;;10.66;92.71;100663.56;5134304;27;20196;-65
2022/05/19 01:38:02;;;;;;;4.40;4.07;;;;;;;10.61;92.91;100673.84;5134641;27;20195;-65
2022/05/19 01:40:41;;;;;;;4.77;4.43;;;;;;;10.58;93.36;100668.91;5135054;27;20224;-65
2022/05/19 01:43:20;;;;;;;4.17;3.53;;;;;;;10.60;92.28;100674.84;5135137;27;20187;-65
2022/05/19 01:46:11;;;;;;;3.80;3.50;;;;;;;10.47;91.36;100669.22;5134344;27;20186;-65
2022/05/19 01:48:46;;;;;;;4.17;3.20;;;;;;;10.49;90.64;100668.06;5134993;27;20295;-65
2022/05/19 01:51:18;;;;;;;3.03;2.77;;;;;;;10.48;89.33;100671.72;5134416;27;20247;-65
2022/05/19 01:53:51;;;;;;;6.17;3.00;;;;;;;10.50;89.17;100668.91;5134248;27;20598;-65
2022/05/19 01:56:24;;;;;;;4.40;3.13;;;;;;;10.43;89.99;100674.03;5133874;27;20640;-65
2022/05/19 01:59:02;;;;;;;3.07;2.70;;;;;;;10.46;89.05;100675.53;5135110;27;20259;-65
2022/05/19 02:01:29;;;;;;;5.20;2.93;;;;;;;10.41;89.44;100669.88;5134751;27;20244;-65
2022/05/19 02:04:04;;;;;;;5.30;2.17;;;;;;;10.44;88.63;100674.84;5134057;27;20189;-65
2022/05/19 02:06:35;;;;;;;5.03;2.73;;;;;;;10.37;88.93;100668.53;5133845;27;20218;-65
2022/05/19 02:09:04;;;;;;;2.37;2.27;;;;;;;10.34;88.95;100671.56;5133893;27;20215;-65
2022/05/19 02:11:32;;;;;;;2.37;2.20;;;;;;;10.25;88.01;100675.22;5133665;27;20313;-65
2022/05/19 02:14:05;;;;;;;2.90;2.07;;;;;;;10.15;87.90;100675.34;5134127;27;20189;-65
2022/05/19 02:16:33;;;;;;;2.23;2.03;;;;;;;10.08;88.63;100673.50;5133911;27;20186;-65
2022/05/19 02:19:00;;;;;;;2.57;2.30;;;;;;;10.04;88.54;100677.44;5133483;27;20195;-65
2022/05/19 02:21:28;;;;;;;4.60;2.20;;;;;;;10.04;89.37;100672.97;5134002;27;20190;-66
2022/05/19 02:23:58;;;;;;;2.47;2.37;;;;;;;9.96;89.21;100670.31;5133744;27;20242;-65
2022/05/19 02:26:25;;;;;;;2.70;2.50;;;;;;;9.99;89.57;100680.59;5134233;27;20221;-66
2022/05/19 02:28:56;;;;;;;2.93;2.20;;;;;;;10.01;90.57;100672.47;5133608;27;20267;-65
2022/05/19 02:31:25;;;;;;;3.73;2.00;;;;;;;10.05;89.30;100671.19;5133681;27;20190;-65
2022/05/19 02:33:52;;;;;;;7.17;2.43;;;;;;;9.95;89.44;100679.28;5133810;27;20187;-65
2022/05/19 02:36:19;;;;;;;4.20;2.40;;;;;;;9.89;89.79;100685.22;5133583;27;20197;-65
2022/05/19 02:38:46;;;;;;;2.20;2.00;;;;;;;10.05;90.43;100679.16;5133206;27;20750;-65
2022/05/19 02:41:13;;;;;;;5.43;2.37;;;;;;;10.19;88.24;100673.19;5133495;27;20582;-65
2022/05/19 02:43:39;;;;;;;3.10;2.00;;;;;;;10.23;88.21;100683.34;5133438;27;20198;-65
2022/05/19 02:46:06;;;;;;;2.00;1.90;;;;;;;10.18;86.72;100679.50;5133408;27;20195;-65
2022/05/19 02:48:34;;;;;;;4.83;2.30;;;;;;;10.10;87.04;100682.16;5133184;27;20280;-65
2022/05/19 02:51:02;;;;;;;6.23;2.50;;;;;;;10.09;86.64;100686.63;5133359;27;20192;-65
2022/05/19 02:53:29;;;;;;;3.17;2.40;;;;;;;10.12;86.59;100682.78;5134124;27;20194;-65
2022/05/19 02:55:55;;;;;;;4.00;2.63;;;;;;;10.10;87.68;100684.81;5133490;27;20239;-65
2022/05/19 02:58:22;;;;;;;6.40;2.23;;;;;;;10.15;87.35;100691.28;5133249;27;20628;-65
2022/05/19 03:00:50;;;;;;;2.97;2.13;;;;;;;10.03;87.22;100694.38;5133492;27;20191;-65
2022/05/19 03:03:17;;;;;;;3.03;2.57;;;;;;;9.96;87.55;100686.22;5132892;27;20193;-66
2022/05/19 03:05:45;;;;;;;2.67;2.47;;;;;;;9.92;87.85;100697.31;5132657;27;20197;-65
2022/05/19 03:08:13;;;;;;;2.47;2.27;;;;;;;9.85;87.26;100693.69;5132505;27;20766;-65
2022/05/19 03:10:42;;;;;;;2.07;1.87;;;;;;;9.88;87.05;100693.34;5133655;27;20198;-65
2022/05/19 03:13:16;;;;;;;2.80;2.27;;;;;;;9.86;87.08;100696.19;5133617;27;20253;-66
2022/05/19 03:15:43;;;;;;;2.20;2.00;;;;;;;9.90;85.90;100700.16;5132383;27;20675;-65
2022/05/19 03:18:09;;;;;;;7.17;2.30;;;;;;;9.83;85.91;100691.19;5133492;27;20190;-65
2022/05/19 03:20:36;;;;;;;2.83;1.93;;;;;;;9.87;85.48;100697.00;5132718;27;20732;-65
2022/05/19 03:23:04;;;;;;;2.57;2.40;;;;;;;9.93;85.21;100697.16;5132796;27;20570;-65
2022/05/19 03:25:31;;;;;;;2.70;1.70;;;;;;;9.88;86.09;100696.00;5132904;27;20254;-65
2022/05/19 03:27:58;;;;;;;3.50;2.20;;;;;;;9.85;86.23;100699.00;5132520;27;20190;-65
2022/05/19 03:30:25;;;;;;;2.50;2.20;;;;;;;9.88;85.78;100709.25;5132503;27;20710;-65
2022/05/19 03:32:51;;;;;;;2.47;2.23;;;;;;;9.89;86.35;100710.94;5132809;27;20229;-65
2022/05/19 03:35:18;;;;;;;2.57;2.20;;;;;;;9.99;85.27;100712.47;5132493;27;20190;-65
2022/05/19 03:37:46;;;;;;;2.77;2.57;;;;;;;10.03;85.85;100715.59;5132821;27;20251;-65
2022/05/19 03:40:17;;;;;;;3.30;2.83;;;;;;;10.03;86.24;100713.78;5132822;27;20186;-65
2022/05/19 03:42:44;;;;;;;4.20;2.90;;;;;;;10.10;86.21;100719.31;5132509;27;20275;-66
2022/05/19 03:45:11;;;;;;;8.10;2.43;;;;;;;10.14;85.43;100712.69;5133299;27;20189;-65
2022/05/19 03:47:38;;;;;;;5.50;2.83;;;;;;;10.26;86.31;100703.41;5132415;27;20724;-65
2022/05/19 03:50:06;;;;;;;4.30;2.70;;;;;;;10.44;85.58;100712.88;5133274;27;20287;-66
2022/05/19 03:52:36;;;;;;;5.60;3.20;;;;;;;10.74;85.42;100714.88;5132456;27;20626;-66
2022/05/19 03:55:02;;;;;;;7.20;3.43;;;;;;;11.06;83.29;100719.31;5132652;27;20220;-66
2022/05/19 03:57:30;;;;;;;6.93;3.10;;;;;;;11.57;81.96;100724.16;5132344;27;20242;-66
2022/05/19 03:59:57;;;;;;;7.57;2.70;;;;;;;12.20;78.92;100721.34;5132583;27;20593;-66
2022/05/19 04:02:24;;;;;;;5.70;2.87;;;;;;;13.10;75.27;100722.13;5132785;27;20197;-63
2022/05/19 04:04:51;;;;;;;5.40;2.77;;;;;;;13.95;70.97;100742.81;5132190;27;20691;-64
2022/05/19 04:07:18;;;;;;;3.70;2.70;;;;;;;14.84;67.81;100750.34;5132424;27;20572;-65
2022/05/19 04:09:45;;;;;;;3.80;2.33;;;;;;;15.43;64.92;100746.28;5132403;27;20301;-65
2022/05/19 04:12:12;;;;;;;4.20;2.20;;;;;;;16.15;62.78;100768.09;5132063;27;20617;-68
2022/05/19 04:14:40;;;;;;;6.33;2.20;;;;;;;16.64;62.60;100757.94;5132227;27;20715;-68
2022/05/19 04:17:07;;;;;;;23.70;3.47;;;;;;;17.42;58.60;100761.47;5132467;27;20251;-68
2022/05/19 04:19:35;;;;;;;12.87;2.90;;;;;;;18.07;56.06;100752.38;5135319;27;20198;-68
2022/05/19 04:22:02;;;;;;;6.27;2.20;;;;;;;18.50;55.19;100761.50;5136128;27;20194;-68
2022/05/19 04:24:29;;;;;;;21.50;3.07;;;;;;;18.87;51.89;100764.13;5136080;27;20586;-68
2022/05/19 04:26:55;;;;;;;5.90;2.27;;;;;;;19.14;50.97;100759.34;5135687;27;20198;-68
2022/05/19 04:29:22;;;;;;;1.93;1.70;;;;;;;18.98;50.72;100755.34;5135633;27;20794;-68
2022/05/19 04:31:50;;;;;;;3.63;1.80;;;;;;;19.42;50.42;100762.44;5135908;27;20194;-68
2022/05/19 04:34:17;;;;;;;7.40;2.40;;;;;;;19.52;48.85;100757.38;5135847;27;20613;-66
2022/05/19 04:36:45;;;;;;;5.07;1.73;;;;;;;20.25;47.20;100764.41;5135814;27;20190;-66
2022/05/19 04:39:12;;;;;;;4.60;2.00;;;;;;;20.48;45.70;100759.09;5135808;27;20581;-67
2022/05/19 04:41:38;;;;;;;7.10;1.83;;;;;;;20.31;46.55;100758.91;5135436;27;20684;-67
2022/05/19 04:44:06;;;;;;;7.13;2.50;;;;;;;20.03;46.72;100757.81;5135763;27;20196;-67
2022/05/19 04:46:32;;;;;;;2.90;2.00;;;;;;;20.48;46.64;100748.31;5135634;27;20284;-66
2022/05/19 04:49:00;;;;;;;5.07;1.80;;;;;;;20.63;45.26;100732.53;5135117;27;20240;-67
2022/05/19 04:51:27;;;;;;;3.13;1.80;;;;;;;20.89;45.28;100747.47;5135293;27;20189;-66
2022/05/19 04:53:54;;;;;;;2.30;1.60;;;;;;;20.87;45.05;100757.69;5135131;27;20186;-67
2022/05/19 04:56:20;;;;;;;3.47;1.70;;;;;;;20.83;45.98;100757.34;5135378;27;20557;-68
2022/05/19 04:58:47;;;;;;;1.97;1.87;;;;;;;21.79;45.05;100753.19;5136250;27;20284;-68
2022/05/19 05:01:14;;;;;;;3.23;1.93;;;;;;;21.94;43.21;100750.81;5135300;27;20246;-68
2022/05/19 05:03:40;;;;;;;4.60;1.60;;;;;;;22.11;42.44;100757.09;5135253;27;20194;-70
2022/05/19 05:06:08;;;;;;;17.57;2.40;;;;;;;23.03;42.18;100753.13;5134907;27;20190;-68
2022/05/19 05:08:35;;;;;;;3.43;1.60;;;;;;;23.27;40.45;100763.59;5135050;27;20194;-68
2022/05/19 05:11:02;;;;;;;4.87;1.87;;;;;;;23.40;39.75;100765.94;5135095;27;20194;-68
2022/05/19 05:13:29;;;;;;;37.80;3.50;;;;;;;23.69;38.81;100758.50;5135397;27;20201;-69
2022/05/19 05:15:57;;;;;;;4.37;1.77;;;;;;;23.95;38.43;100758.63;5135010;27;20578;-68
2022/05/19 05:18:24;;;;;;;2.53;1.30;;;;;;;23.41;38.26;100759.47;5134969;27;20194;-69
2022/05/19 05:20:51;;;;;;;10.33;1.53;;;;;;;23.36;37.20;100766.72;5132284;27;20195;-66
2022/05/19 05:23:19;;;;;;;6.90;1.50;;;;;;;23.23;37.63;100767.84;5122894;27;20579;-69
2022/05/19 05:25:45;;;;;;;3.53;1.30;;;;;;;23.27;37.81;100768.19;5123514;27;20194;-68
2022/05/19 05:28:12;;;;;;;2.70;1.50;;;;;;;22.85;38.10;100770.44;5134568;27;20186;-68
2022/05/19 05:30:39;;;;;;;6.57;2.03;;;;;;;22.92;39.57;100771.13;5133067;27;20294;-65
2022/05/19 05:33:09;;;;;;;2.80;1.47;;;;;;;23.60;38.90;100766.25;5126233;27;20227;-67
2022/05/19 05:35:36;;;;;;;4.53;1.77;;;;;;;24.05;37.25;100769.59;5116684;27;20247;-66
2022/05/19 05:38:03;;;;;;;4.17;1.60;;;;;;;23.93;37.55;100768.91;5134542;27;20186;-67
2022/05/19 05:40:31;;;;;;;2.13;1.50;;;;;;;23.84;37.75;100764.94;5128634;27;20191;-68
2022/05/19 05:43:05;;;;;;;6.20;1.10;;;;;;;23.87;36.94;100764.47;5113794;28;20192;-77
2022/05/19 05:45:32;;;;;;;9.33;1.47;;;;;;;24.35;35.72;100769.16;5114794;27;20190;-77
2022/05/19 05:47:58;;;;;;;4.43;1.13;;;;;;;24.21;37.73;100760.56;5128522;27;20252;-71
2022/05/19 05:50:25;;;;;;;12.80;1.93;;;;;;;24.43;39.05;100758.63;5118805;27;20226;-68
2022/05/19 05:52:52;;;;;;;8.23;1.73;;;;;;;25.27;38.98;100748.00;5117620;27;20248;-68
2022/05/19 05:55:19;;;;;;;5.30;1.97;;;;;;;25.86;33.83;100765.78;5131665;27;20200;-68
2022/05/19 05:57:47;;;;;;;2.47;1.57;;;;;;;26.17;33.85;100756.72;5134148;27;20259;-68
2022/05/19 06:00:15;;;;;;;6.50;1.40;;;;;;;26.53;32.45;100761.16;5134091;27;20258;-68
2022/05/19 06:02:41;;;;;;;6.33;1.60;;;;;;;26.35;31.90;100756.22;5132232;27;20194;-68
2022/05/19 06:05:09;;;;;;;1.60;1.37;;;;;;;26.02;31.88;100756.66;5133777;27;20220;-68
2022/05/19 06:07:35;;;;;;;5.83;1.60;;;;;;;25.95;32.32;100751.44;5116215;27;20194;-68
2022/05/19 06:10:02;;;;;;;8.03;1.77;;;;;;;26.36;31.58;100755.13;5112927;28;20279;-68
2022/05/19 06:12:29;;;;;;;4.27;1.40;;;;;;;26.25;31.79;100748.03;5113298;28;20263;-68
2022/05/19 06:14:57;;;;;;;2.30;1.30;;;;;;;25.84;33.10;100752.44;5113378;28;20190;-68
2022/05/19 06:17:24;;;;;;;8.63;1.87;;;;;;;26.26;32.23;100752.38;5113174;28;20195;-68
2022/05/19 06:19:51;;;;;;;1.10;1.03;;;;;;;26.63;32.49;100753.03;5114540;27;20216;-70
2022/05/19 06:22:18;;;;;;;7.60;1.53;;;;;;;26.75;31.81;100756.31;5113292;28;20273;-68
2022/05/19 06:24:45;;;;;;;2.40;1.50;;;;;;;25.36;32.55;100751.91;5113042;28;20281;-70
2022/05/19 06:27:12;;;;;;;15.73;2.63;;;;;;;25.15;33.70;100745.44;5113272;28;20187;-72
2022/05/19 06:29:39;;;;;;;4.97;1.80;;;;;;;24.96;34.62;100746.94;5112484;28;20226;-72
2022/05/19 06:32:08;;;;;;;2.50;1.83;;;;;;;25.34;33.69;100748.59;5112649;28;20742;-71
2022/05/19 06:34:35;;;;;;;8.47;1.90;;;;;;;25.31;34.08;100749.94;5112655;28;20666;-71
2022/05/19 06:37:02;;;;;;;2.13;1.40;;;;;;;25.45;33.81;100744.88;5112911;28;20659;-71
2022/05/19 06:39:29;;;;;;;9.80;2.10;;;;;;;25.54;34.18;100749.56;5112539;28;20197;-71
2022/05/19 06:42:02;;;;;;;15.87;2.33;;;;;;;25.92;32.84;100756.59;5131380;27;20667;-70
2022/05/19 06:44:31;;;;;;;13.63;2.00;;;;;;;26.26;32.53;100757.81;5133618;27;20182;-71
2022/05/19 06:46:58;;;;;;;8.60;2.20;;;;;;;26.10;31.61;100753.41;5127850;27;20198;-69
2022/05/19 06:49:27;;;;;;;5.20;1.23;;;;;;;26.19;32.15;100751.81;5112325;28;20230;-70
2022/05/19 06:51:54;;;;;;;5.77;1.53;;;;;;;26.23;31.95;100753.72;5112347;28;20191;-71
2022/05/19 06:54:21;;;;;;;3.70;1.70;;;;;;;26.26;31.92;100757.81;5123724;27;20242;-70
2022/05/19 06:56:48;;;;;;;41.13;3.43;;;;;;;25.88;33.54;100750.03;5141694;27;20201;-72
2022/05/19 06:59:16;;;;;;;20.20;2.27;;;;;;;26.10;32.46;100742.50;5141195;27;20747;-71
2022/05/19 07:01:44;;;;;;;7.63;1.53;;;;;;;26.32;32.48;100751.28;5133411;27;20196;-71
2022/05/19 07:04:10;;;;;;;5.93;1.43;;;;;;;26.21;33.20;100750.44;5133140;27;20186;-70
2022/05/19 07:06:38;;;;;;;3.07;1.43;;;;;;;25.21;33.90;100740.88;5133155;27;20239;-69
2022/05/19 07:09:05;;;;;;;5.30;1.60;;;;;;;25.70;33.25;100745.84;5132897;27;20189;-69
2022/05/19 07:11:32;;;;;;;5.03;2.00;;;;;;;26.27;31.94;100748.56;5133949;27;20190;-68
2022/05/19 07:14:01;;;;;;;3.80;2.27;;;;;;;26.23;31.22;100750.19;5132138;27;20186;-70
2022/05/19 07:16:28;;;;;;;4.63;1.73;;;;;;;26.43;31.93;100748.34;5133041;27;20641;-69
2022/05/19 07:20:43;;;;;;;17.23;2.20;;;;;;;26.61;31.40;100744.28;5132858;27;20227;-68
2022/05/19 07:21:44;;;;;;;8.07;1.70;;;;;;;26.75;30.38;100748.16;5132650;28;20182;-71
2022/05/19 07:24:14;;;;;;;12.23;1.47;;;;;;;26.20;30.08;100745.25;5133113;27;20198;-70
2022/05/19 07:26:42;;;;;;;35.97;3.53;;;;;;;26.31;31.13;100745.03;5132816;27;20190;-71
2022/05/19 07:29:09;;;;;;;13.37;1.80;;;;;;;25.61;32.61;100738.44;5132333;27;20200;-70
2022/05/19 07:31:36;;;;;;;3.20;1.40;;;;;;;24.65;32.55;100740.41;5133414;27;20615;-71
2022/05/19 07:34:03;;;;;;;21.30;3.07;;;;;;;25.34;32.24;100744.00;5132686;27;20190;-71
2022/05/19 07:36:31;;;;;;;7.27;2.07;;;;;;;25.68;32.33;100744.47;5132538;27;20194;-69
2022/05/19 07:39:00;;;;;;;16.43;2.27;;;;;;;26.12;32.63;100740.31;5132465;27;20684;-70
2022/05/19 07:41:27;;;;;;;1.80;1.30;;;;;;;26.46;31.75;100736.88;5117528;27;20613;-69
2022/05/19 07:43:55;;;;;;;3.27;1.50;;;;;;;26.09;32.31;100740.88;5111746;28;20191;-70
2022/05/19 07:46:22;;;;;;;2.97;1.40;;;;;;;25.35;31.44;100734.75;5111625;28;20190;-70
2022/05/19 07:48:49;;;;;;;8.30;1.37;;;;;;;25.99;30.88;100736.22;5111918;28;20272;-71
2022/05/19 07:51:16;;;;;;;3.00;1.50;;;;;;;26.30;31.28;100737.13;5122633;27;20222;-69
2022/05/19 07:53:43;;;;;;;1.93;1.07;;;;;;;26.09;31.53;100733.50;5129828;27;20568;-71
2022/05/19 07:56:11;;;;;;;19.93;2.77;;;;;;;26.54;31.32;100721.91;5117383;27;20621;-70
2022/05/19 07:58:38;;;;;;;3.87;1.53;;;;;;;26.83;29.45;100740.22;5135668;27;20186;-69
2022/05/19 08:01:04;;;;;;;20.13;2.93;;;;;;;26.17;30.79;100732.19;5135744;27;20194;-71
2022/05/19 08:03:31;;;;;;;6.37;1.40;;;;;;;25.36;31.80;100735.56;5153748;27;20661;-71
2022/05/19 08:05:58;;;;;;;17.03;2.37;;;;;;;26.26;31.72;100727.84;5156577;27;20308;-72
2022/05/19 08:08:24;;;;;;;1.87;1.10;;;;;;;26.28;29.94;100733.84;5156430;27;20586;-73
2022/05/19 08:10:54;;;;;;;2.97;1.17;;;;;;;26.43;28.56;100736.59;5156511;27;20252;-72
2022/05/19 08:16:07;;;;;;;27.73;2.93;;;;;;;25.08;30.40;100732.06;5135804;27;20322;-71
2022/05/19 08:18:33;;;;;;;6.27;1.43;;;;;;;25.43;31.22;100736.97;5136442;27;20185;-71
2022/05/19 08:21:04;;;;;;;7.30;1.63;;;;;;;25.05;30.62;100729.06;5136031;27;20273;-70
2022/05/19 08:23:33;;;;;;;1.57;1.20;;;;;;;25.25;29.47;100733.81;5136310;27;20220;-70
2022/05/19 08:26:01;;;;;;;3.37;1.30;;;;;;;25.61;29.46;100730.28;5135856;27;20243;-70
2022/05/19 08:28:30;;;;;;;3.87;1.30;;;;;;;25.22;29.28;100723.47;5135653;27;20284;-69
2022/05/19 08:30:58;;;;;;;7.27;1.30;;;;;;;24.75;30.63;100735.06;5135442;27;20706;-71
2022/05/19 08:33:25;;;;;;;4.30;1.40;;;;;;;25.43;29.27;100731.53;5135506;27;20277;-69
2022/05/19 08:35:52;;;;;;;15.63;2.87;;;;;;;25.67;30.03;100721.88;5135210;27;20189;-70
2022/05/19 08:38:20;;;;;;;2.50;1.57;;;;;;;26.04;27.94;100722.59;5135427;27;20219;-71
2022/05/19 08:40:50;;;;;;;28.63;3.17;;;;;;;25.20;28.89;100731.06;5135780;27;20627;-71
2022/05/19 08:43:19;;;;;;;12.43;1.50;;;;;;;25.96;26.29;100727.75;5136174;27;20194;-74
2022/05/19 08:45:51;;;;;;;3.20;1.17;;;;;;;25.68;26.35;100728.94;5135549;27;20186;-74
2022/05/19 08:48:21;;;;;;;11.37;1.73;;;;;;;25.95;25.77;100728.81;5119731;27;20230;-74
2022/05/19 08:50:52;;;;;;;6.80;1.20;;;;;;;25.63;25.74;100730.84;5114655;28;20309;-72
2022/05/19 08:53:19;;;;;;;9.93;1.70;;;;;;;25.52;25.67;100723.69;5116395;27;20243;-71
2022/05/19 08:55:51;;;;;;;3.70;1.40;;;;;;;25.56;25.74;100727.53;5114491;28;20198;-71
2022/05/19 08:58:33;;;;;;;4.87;1.10;;;;;;;25.86;25.92;100719.50;5114651;28;20221;-69
2022/05/19 09:01:05;;;;;;;3.77;1.37;;;;;;;25.74;26.97;100721.63;5113615;28;20663;-70
2022/05/19 09:03:38;;;;;;;21.80;2.07;;;;;;;26.04;26.84;100716.34;5113772;28;20187;-70
2022/05/19 09:06:27;;;;;;;17.60;1.73;;;;;;;26.17;25.76;100721.28;5114153;28;20197;-70
2022/05/19 09:09:09;;;;;;;5.00;1.30;;;;;;;26.45;25.04;100716.16;5115611;28;20614;-71
2022/05/19 09:11:45;;;;;;;2.60;1.37;;;;;;;26.68;24.65;100720.31;5114576;28;20206;-71
2022/05/19 09:14:21;;;;;;;4.20;0.90;;;;;;;26.91;23.44;100717.88;5114923;28;20239;-71
2022/05/19 09:16:49;;;;;;;5.60;1.20;;;;;;;26.66;23.88;100708.88;5114413;28;20236;-71
2022/05/19 09:19:21;;;;;;;1.27;1.10;;;;;;;26.74;24.15;100706.41;5115197;28;20187;-70
2022/05/19 09:21:54;;;;;;;2.67;1.10;;;;;;;26.43;23.53;100706.63;5114062;28;20270;-71
2022/05/19 09:24:22;;;;;;;12.93;1.67;;;;;;;26.15;23.99;100707.94;5114720;28;20183;-69
2022/05/19 09:26:52;;;;;;;16.93;2.00;;;;;;;26.08;24.94;100707.38;5114130;28;20615;-70
2022/05/19 09:29:22;;;;;;;65.00;5.57;;;;;;;26.13;23.07;100703.84;5114115;28;20198;-69
2022/05/19 09:31:53;;;;;;;1.47;0.80;;;;;;;26.06;22.35;100697.81;5113723;28;20202;-71
2022/05/19 09:34:24;;;;;;;11.30;1.70;;;;;;;26.28;22.57;100692.97;5114229;28;20198;-69
2022/05/19 09:37:05;;;;;;;5.00;1.10;;;;;;;26.37;21.95;100689.44;5113745;28;20182;-70
2022/05/19 09:39:35;;;;;;;17.53;2.50;;;;;;;26.36;23.69;100687.00;5113875;28;20559;-70
2022/05/19 09:42:08;;;;;;;9.40;1.73;;;;;;;26.30;24.96;100674.47;5134331;27;20201;-70
2022/05/19 09:44:40;;;;;;;14.10;1.93;;;;;;;26.04;24.57;100670.06;5134234;27;20218;-71
2022/05/19 09:47:18;;;;;;;5.97;1.47;;;;;;;26.34;23.88;100670.91;5129375;27;20191;-69
2022/05/19 09:49:53;;;;;;;25.43;2.30;;;;;;;26.12;24.31;100674.94;5114438;28;20244;-69
2022/05/19 09:52:24;;;;;;;1.10;1.00;;;;;;;26.38;22.75;100663.03;5113915;28;20216;-69
2022/05/19 09:54:56;;;;;;;2.57;1.30;;;;;;;26.08;24.56;100660.22;5114901;27;20187;-69
2022/05/19 09:57:27;;;;;;;2.23;1.10;;;;;;;26.22;24.63;100664.09;5113438;28;20573;-70
2022/05/19 09:59:58;;;;;;;1.50;1.20;;;;;;;26.28;25.63;100660.28;5113389;28;20709;-70
2022/05/19 10:02:32;;;;;;;7.20;1.67;;;;;;;26.23;24.49;100652.94;5114144;28;20187;-70
2022/05/19 10:05:01;;;;;;;5.80;1.33;;;;;;;26.34;24.60;100651.81;5113159;28;20650;-71
2022/05/19 10:07:30;;;;;;;5.33;1.40;;;;;;;26.63;23.27;100654.91;5113600;28;20219;-68
2022/05/19 10:09:58;;;;;;;2.63;1.00;;;;;;;26.74;23.58;100653.81;5113122;28;20187;-70
2022/05/19 10:12:28;;;;;;;7.93;1.27;;;;;;;26.44;24.43;100646.41;5113431;28;20187;-69
2022/05/19 10:15:03;;;;;;;3.53;0.90;;;;;;;26.50;23.87;100649.97;5113118;28;20643;-69
2022/05/19 10:17:44;;;;;;;8.73;2.37;;;;;;;26.26;24.86;100649.66;5113538;28;20194;-70
2022/05/19 10:20:18;;;;;;;25.57;6.77;;;;;;;25.93;26.18;100630.22;5113152;28;20193;-68
2022/05/19 10:23:04;;;;;;;7.07;1.60;;;;;;;25.71;25.73;100635.03;5112920;28;20179;-68
2022/05/19 10:25:43;;;;;;;2.60;1.20;;;;;;;26.10;25.14;100631.66;5112900;28;20223;-69
2022/05/19 10:31:18;;;;;;;1.50;1.10;;;;;;;26.58;25.34;100614.00;5154002;27;20357;-68
2022/05/19 10:34:06;;;;;;;1.47;1.30;;;;;;;26.75;24.98;100620.78;5154059;27;20193;-70
2022/05/19 10:36:47;;;;;;;3.53;1.10;;;;;;;27.01;23.30;100622.41;5154493;27;20185;-69
2022/05/19 10:39:35;;;;;;;7.50;1.50;;;;;;;27.10;24.93;100617.19;5154318;27;20185;-69
2022/05/19 10:42:10;;;;;;;11.33;2.50;;;;;;;26.69;26.42;100621.91;5133221;27;20585;-70
2022/05/19 10:44:57;;;;;;;4.00;1.33;;;;;;;26.51;25.12;100602.53;5133401;27;20183;-71
2022/05/19 10:47:37;;;;;;;1.43;1.27;;;;;;;26.54;26.37;100610.16;5125838;27;20203;-70
2022/05/19 10:50:12;;;;;;;3.53;1.30;;;;;;;26.54;25.01;100601.97;5112755;28;20256;-70
2022/05/19 10:53:08;;;;;;;1.80;1.20;;;;;;;26.31;25.71;100600.63;5112879;28;20244;-70
2022/05/19 10:55:42;;;;;;;3.80;1.30;;;;;;;26.45;25.80;100601.69;5132604;27;20234;-67
2022/05/19 10:58:22;;;;;;;1.73;1.10;;;;;;;26.27;26.10;100604.16;5133102;27;20193;-69
2022/05/19 11:01:01;;;;;;;5.23;1.30;;;;;;;25.83;26.70;100597.50;5133882;27;20193;-68
2022/05/19 11:03:47;;;;;;;3.63;1.20;;;;;;;25.59;27.38;100594.44;5133695;27;20255;-69
2022/05/19 11:06:33;;;;;;;4.97;1.47;;;;;;;25.99;28.32;100588.31;5132753;27;20239;-74
2022/05/19 11:09:13;;;;;;;16.57;2.10;;;;;;;26.11;27.73;100588.88;5132468;27;20198;-70
2022/05/19 11:11:52;;;;;;;12.70;1.87;;;;;;;25.69;26.63;100586.34;5132775;27;20216;-72
2022/05/19 11:14:37;;;;;;;19.20;2.30;;;;;;;25.65;26.96;100581.69;5132596;27;20182;-71
2022/05/19 11:17:12;;;;;;;1.80;1.17;;;;;;;25.72;27.05;100583.06;5132132;27;20178;-71
2022/05/19 11:19:46;;;;;;;12.00;2.07;;;;;;;25.75;26.42;100571.63;5132734;27;20186;-70
2022/05/19 11:22:17;;;;;;;4.57;1.50;;;;;;;26.11;26.98;100565.19;5132735;27;20190;-71
2022/05/19 11:27:55;;;;;;;1.50;1.20;;;;;;;25.95;27.18;100573.59;5070660;28;20239;-72
2022/05/19 11:30:29;;;;;;;12.77;1.70;;;;;;;25.61;26.80;100569.69;5124785;27;20212;-72
2022/05/19 11:33:00;;;;;;;6.03;1.33;;;;;;;25.64;26.69;100558.28;5136562;27;20737;-69
2022/05/19 11:35:33;;;;;;;8.30;1.50;;;;;;;25.58;25.80;100559.34;5137371;27;20247;-70
2022/05/19 11:38:09;;;;;;;3.17;1.50;;;;;;;25.70;26.50;100546.31;5136697;27;20541;-68
2022/05/19 11:40:42;;;;;;;1.33;1.23;;;;;;;25.66;26.52;100547.91;5137231;27;20186;-70
2022/05/19 11:43:15;;;;;;;1.60;1.50;;;;;;;25.83;26.48;100545.78;5136483;27;20269;-72
2022/05/19 11:45:44;;;;;;;1.53;1.43;;;;;;;25.99;25.96;100550.19;5137755;27;20214;-70